Alfred, New York
Current Conditions -  °F | °C
As of 3:56 PM on Thursday 23 Oct 2014 (Local Time) from KELZ Reporting Station
Overcast Overcast  
Wind Chill: 54°   Ceiling: 4800
Heat Index: 54°   Visibility: 10mi
Dew Point: 36°   Wind: 18mph
Humidity: 51%   Direction: 340°NNW
Pressure: 29.99"   Gusts: 25mph
Location:  42.25°N, 77.79°W
Report Text: KELZ 231956Z AUTO 34016G22KT 10SM OVC048 12/02 A2999 RMK AO2 PK WND 35027/1857 SLP161 T01220022
Loading
Personal Weather Stations






























Interactive Weather Map New forecast layout! Learn more

10-Day Weather Forecast

Advertisements
Track Severe Weather on mobile